Observation data for Clarendon on 07/05/2020      Previous  Date  Next       Current Mesonet Observations  Soil Data  Daily Summary Page  Observations in Plain Language
KCES 050500Z 03004KT 22/19 A3001 RMK A01 T02180189  RH  088%=      5-min Rain = 0
KCES 050505Z 03003KT 22/19 A3001 RMK A01 T02190190  RH  088%=      5-min Rain = 0
KCES 050510Z 02002KT 22/19 A3001 RMK A01 T02190190  RH  088%=      5-min Rain = 0
KCES 050515Z 03002KT 22/19 A3001 RMK A01 T02190190  RH  088%=      5-min Rain = 0
KCES 050520Z 03003KT 22/19 A3001 RMK A01 T02190190  RH  088%=      5-min Rain = 0
KCES 050525Z 04003KT 22/19 A3001 RMK A01 T02190189  RH  088%=      5-min Rain = 0
KCES 050530Z 03003KT 22/19 A3001 RMK A01 T02190188  RH  087%=      5-min Rain = 0
KCES 050535Z 02002KT 22/19 A3001 RMK A01 T02190188  RH  087%=      5-min Rain = 0
KCES 050540Z 00002KT 22/19 A3001 RMK A01 T02190189  RH  087%=      5-min Rain = 0
KCES 050545Z 34002KT 22/19 A3001 RMK A01 T02180188  RH  088%=      5-min Rain = 0
KCES 050550Z 35002KT 22/19 A3001 RMK A01 T02160187  RH  088%=      5-min Rain = 0
KCES 050555Z 00002KT 22/19 A3001 RMK A01 T02160188  RH  088%=      5-min Rain = 0
KCES 050600Z 36002KT 22/19 A3001 RMK A01 T02180188  RH  088%=      5-min Rain = 0
KCES 050605Z 01002KT 22/19 A3001 RMK A01 T02190189  RH  088%=      5-min Rain = 0
KCES 050610Z 01002KT 22/19 A3001 RMK A01 T02190189  RH  087%=      5-min Rain = 0
KCES 050615Z 34002KT 22/19 A3001 RMK A01 T02200189  RH  087%=      5-min Rain = 0
KCES 050620Z 30001KT 22/19 A3001 RMK A01 T02200189  RH  087%=      5-min Rain = 0
KCES 050625Z 33002KT 22/19 A3001 RMK A01 T02190189  RH  087%=      5-min Rain = 0
KCES 050630Z 28000KT 22/19 A3001 RMK A01 T02190189  RH  088%=      5-min Rain = 0
KCES 050635Z 25002KT 22/19 A3002 RMK A01 T02190191  RH  088%=      5-min Rain = 0
KCES 050640Z 30012G24KT 22/19 A3004 RMK A01 T02200192  RH  089%=      5-min Rain = 0
KCES 050645Z 31019G25KT 22/19 A3005 RMK A01 T02220188  RH  086%=      5-min Rain = 0
KCES 050650Z 30015G21KT 23/18 A3006 RMK A01 T02280181  RH  079%=      5-min Rain = 0
KCES 050655Z 30016G21KT 24/18 A3006 RMK A01 T02350178  RH  074%=      5-min Rain = 0
KCES 050700Z 30015G20KT 24/18 A3007 RMK A01 T02350178  RH  074%=      5-min Rain = 0
KCES 050705Z 31013KT 23/18 A3007 RMK A01 T02310179  RH  077%=      5-min Rain = 0.04
KCES 050710Z 31010KT 23/18 A3007 RMK A01 T02260180  RH  079%=      5-min Rain = 0
KCES 050715Z 31009KT 23/18 A3007 RMK A01 T02250180  RH  080%=      5-min Rain = 0
KCES 050720Z 31010KT 23/18 A3006 RMK A01 T02260181  RH  080%=      5-min Rain = 0.01
KCES 050725Z 31012KT 23/18 A3006 RMK A01 T02250180  RH  080%=      5-min Rain = 0
KCES 050730Z 30011G16KT 22/18 A3006 RMK A01 T02240180  RH  080%=      5-min Rain = 0
KCES 050735Z 30011KT 22/18 A3006 RMK A01 T02240177  RH  079%=      5-min Rain = 0
KCES 050740Z 30012G19KT 22/18 A3006 RMK A01 T02230175  RH  078%=      5-min Rain = 0
KCES 050745Z 30013KT 22/17 A3006 RMK A01 T02230172  RH  077%=      5-min Rain = 0
KCES 050750Z 30014KT 22/17 A3007 RMK A01 T02220170  RH  076%=      5-min Rain = 0
KCES 050755Z 30013KT 22/17 A3007 RMK A01 T02220168  RH  075%=      5-min Rain = 0
KCES 050800Z 31011KT 22/17 A3007 RMK A01 T02200170  RH  077%=      5-min Rain = 0
KCES 050805Z 30013G19KT 22/17 A3007 RMK A01 T02190168  RH  076%=      5-min Rain = 0
KCES 050810Z 30015G20KT 22/17 A3006 RMK A01 T02160165  RH  076%=      5-min Rain = 0
KCES 050815Z 31014KT 21/17 A3006 RMK A01 T02130165  RH  078%=      5-min Rain = 0
KCES 050820Z 31011G16KT 21/17 A3006 RMK A01 T02110165  RH  079%=      5-min Rain = 0
KCES 050825Z 30009KT 21/17 A3006 RMK A01 T02100166  RH  080%=      5-min Rain = 0
KCES 050830Z 31011KT 21/17 A3006 RMK A01 T02080167  RH  081%=      5-min Rain = 0
KCES 050835Z 31012KT 21/17 A3005 RMK A01 T02080166  RH  080%=      5-min Rain = 0
KCES 050840Z 31010KT 21/17 A3005 RMK A01 T02080166  RH  081%=      5-min Rain = 0
KCES 050845Z 31007KT 21/17 A3005 RMK A01 T02070166  RH  081%=      5-min Rain = 0
KCES 050850Z 28008KT 21/17 A3006 RMK A01 T02060168  RH  083%=      5-min Rain = 0
KCES 050855Z 25009KT 21/17 A3008 RMK A01 T02050168  RH  083%=      5-min Rain = 0
KCES 050900Z 26009KT 21/17 A3008 RMK A01 T02060165  RH  082%=      5-min Rain = 0
KCES 050905Z 28006KT 21/17 A3008 RMK A01 T02050165  RH  082%=      5-min Rain = 0
KCES 050910Z 28005KT 20/17 A3008 RMK A01 T02040166  RH  082%=      5-min Rain = 0
KCES 050915Z 32004KT 20/17 A3007 RMK A01 T02030165  RH  083%=      5-min Rain = 0
KCES 050920Z 31006KT 20/17 A3007 RMK A01 T02030165  RH  083%=      5-min Rain = 0
KCES 050925Z 34007KT 20/17 A3007 RMK A01 T02030167  RH  084%=      5-min Rain = 0
KCES 050930Z 36006KT 20/17 A3006 RMK A01 T02030168  RH  085%=      5-min Rain = 0
KCES 050935Z 01005KT 20/17 A3005 RMK A01 T02030168  RH  085%=      5-min Rain = 0
KCES 050940Z 01003KT 20/17 A3005 RMK A01 T02030168  RH  084%=      5-min Rain = 0
KCES 050945Z 19004KT 20/17 A3005 RMK A01 T02030169  RH  085%=      5-min Rain = 0
KCES 050950Z 19005KT 20/17 A3004 RMK A01 T02020171  RH  087%=      5-min Rain = 0.01
KCES 050955Z 19006KT 20/17 A3004 RMK A01 T02010172  RH  088%=      5-min Rain = 0.01
KCES 051000Z 21003KT 20/17 A3004 RMK A01 T01990172  RH  089%=      5-min Rain = 0
KCES 051005Z 20003KT 20/17 A3004 RMK A01 T01980172  RH  089%=      5-min Rain = 0.01
KCES 051010Z 24000KT 20/17 A3003 RMK A01 T01970171  RH  090%=      5-min Rain = 0.01
KCES 051015Z 26001KT 20/17 A3003 RMK A01 T01960171  RH  090%=      5-min Rain = 0
KCES 051020Z 29003KT 20/17 A3002 RMK A01 T01950171  RH  090%=      5-min Rain = 0
KCES 051025Z 28005KT 20/17 A3001 RMK A01 T01960171  RH  090%=      5-min Rain = 0
KCES 051030Z 29006KT 20/17 A30 RMK A01 T01960171  RH  089%=      5-min Rain = 0
KCES 051035Z 28005KT 20/17 A30 RMK A01 T01980170  RH  088%=      5-min Rain = 0
KCES 051040Z 28005KT 20/17 A30 RMK A01 T01980169  RH  088%=      5-min Rain = 0
KCES 051045Z 28004KT 20/17 A30 RMK A01 T01980169  RH  088%=      5-min Rain = 0
KCES 051050Z 27003KT 20/17 A2999 RMK A01 T01980169  RH  088%=      5-min Rain = 0
KCES 051055Z 30002KT 20/17 A2999 RMK A01 T01980169  RH  088%=      5-min Rain = 0
KCES 051100Z 33003KT 20/17 A30 RMK A01 T01980170  RH  088%=      5-min Rain = 0
KCES 051105Z 35003KT 20/17 A30 RMK A01 T01970170  RH  088%=      5-min Rain = 0
KCES 051110Z 03002KT 20/17 A30 RMK A01 T01970170  RH  089%=      5-min Rain = 0
KCES 051115Z 03002KT 20/17 A30 RMK A01 T01980171  RH  089%=      5-min Rain = 0
KCES 051120Z 05001KT 20/17 A30 RMK A01 T01970171  RH  089%=      5-min Rain = 0
KCES 051125Z 04003KT 20/17 A30 RMK A01 T01970172  RH  089%=      5-min Rain = 0
KCES 051130Z 02004KT 20/17 A3001 RMK A01 T01980173  RH  089%=      5-min Rain = 0
KCES 051135Z 00003KT 20/17 A3001 RMK A01 T01990173  RH  089%=      5-min Rain = 0
KCES 051140Z 02002KT 20/17 A3001 RMK A01 T01990173  RH  089%=      5-min Rain = 0
KCES 051145Z 03000KT 20/17 A3001 RMK A01 T01990173  RH  089%=      5-min Rain = 0
KCES 051150Z 34001KT 20/17 A3001 RMK A01 T01990173  RH  090%=      5-min Rain = 0
KCES 051155Z 35003KT 20/17 A3001 RMK A01 T01990174  RH  090%=      5-min Rain = 0
KCES 051200Z 35006KT 20/18 A3001 RMK A01 T02000175  RH  090%=      5-min Rain = 0
KCES 051205Z 35008KT 20/17 A3001 RMK A01 T01990173  RH  089%=      5-min Rain = 0
KCES 051210Z 36008KT 20/17 A3001 RMK A01 T01990172  RH  089%=      5-min Rain = 0
KCES 051215Z 36008KT 20/17 A3002 RMK A01 T01990172  RH  089%=      5-min Rain = 0
KCES 051220Z 36009KT 20/17 A3002 RMK A01 T01990172  RH  089%=      5-min Rain = 0
KCES 051225Z 35008KT 20/17 A3002 RMK A01 T01980172  RH  089%=      5-min Rain = 0
KCES 051230Z 36008KT 20/17 A3002 RMK A01 T01990172  RH  089%=      5-min Rain = 0
KCES 051235Z 35008KT 20/17 A3002 RMK A01 T01980172  RH  089%=      5-min Rain = 0
KCES 051240Z 34009KT 20/17 A3002 RMK A01 T01980172  RH  089%=      5-min Rain = 0
KCES 051245Z 34010KT 20/17 A3002 RMK A01 T01980171  RH  089%=      5-min Rain = 0
KCES 051250Z 34010KT 20/17 A3002 RMK A01 T01990171  RH  088%=      5-min Rain = 0
KCES 051255Z 34008KT 20/17 A3003 RMK A01 T02000171  RH  088%=      5-min Rain = 0
KCES 051300Z 00006KT 20/17 A3003 RMK A01 T02040174  RH  087%=      5-min Rain = 0
KCES 051305Z 08007G12KT 21/18 A3004 RMK A01 T02090177  RH  086%=      5-min Rain = 0
KCES 051310Z 06006G11KT 21/18 A3004 RMK A01 T02080176  RH  086%=      5-min Rain = 0
KCES 051315Z 07007KT 21/18 A3004 RMK A01 T02100178  RH  086%=      5-min Rain = 0
KCES 051320Z 09009KT 21/18 A3004 RMK A01 T02100177  RH  086%=      5-min Rain = 0
KCES 051325Z 08008G13KT 21/18 A3004 RMK A01 T02110178  RH  086%=      5-min Rain = 0
KCES 051330Z 09009KT 21/18 A3004 RMK A01 T02110177  RH  085%=      5-min Rain = 0
KCES 051335Z 09009KT 21/18 A3004 RMK A01 T02100176  RH  085%=      5-min Rain = 0
KCES 051340Z 09008KT 21/18 A3004 RMK A01 T02080175  RH  086%=      5-min Rain = 0
KCES 051345Z 09008KT 21/18 A3005 RMK A01 T02080176  RH  086%=      5-min Rain = 0
KCES 051350Z 09008KT 21/18 A3005 RMK A01 T02090176  RH  086%=      5-min Rain = 0
KCES 051355Z 09009KT 21/18 A3005 RMK A01 T02090175  RH  085%=      5-min Rain = 0
KCES 051400Z 08007KT 21/18 A3005 RMK A01 T02100177  RH  086%=      5-min Rain = 0
KCES 051405Z 08006KT 21/18 A3005 RMK A01 T02110177  RH  085%=      5-min Rain = 0
KCES 051410Z 07007KT 21/18 A3005 RMK A01 T02110175  RH  084%=      5-min Rain = 0
KCES 051415Z 07007KT 21/18 A3006 RMK A01 T02130175  RH  083%=      5-min Rain = 0
KCES 051420Z 07008KT 21/17 A3006 RMK A01 T02140174  RH  082%=      5-min Rain = 0
KCES 051425Z 07009KT 22/17 A3005 RMK A01 T02150173  RH  081%=      5-min Rain = 0
KCES 051430Z 06009KT 21/17 A3005 RMK A01 T02140174  RH  082%=      5-min Rain = 0
KCES 051435Z 05009KT 22/17 A3005 RMK A01 T02160174  RH  081%=      5-min Rain = 0
KCES 051440Z 06008KT 22/18 A3005 RMK A01 T02170175  RH  081%=      5-min Rain = 0
KCES 051445Z 06008KT 22/18 A3005 RMK A01 T02180175  RH  081%=      5-min Rain = 0
KCES 051450Z 05009KT 22/17 A3005 RMK A01 T02200174  RH  079%=      5-min Rain = 0
KCES 051455Z 04008KT 22/17 A3005 RMK A01 T02220174  RH  078%=      5-min Rain = 0
KCES 051500Z 06007KT 22/18 A3006 RMK A01 T02240176  RH  078%=      5-min Rain = 0
KCES 051505Z 07007KT 23/18 A3006 RMK A01 T02280178  RH  077%=      5-min Rain = 0
KCES 051510Z 06006KT 23/18 A3006 RMK A01 T02330179  RH  076%=      5-min Rain = 0
KCES 051515Z 06006KT 24/18 A3006 RMK A01 T02350177  RH  073%=      5-min Rain = 0
KCES 051520Z 05005KT 24/18 A3006 RMK A01 T02380179  RH  073%=      5-min Rain = 0
KCES 051525Z 05007KT 24/18 A3006 RMK A01 T02390175  RH  071%=      5-min Rain = 0
KCES 051530Z 04007KT 24/17 A3006 RMK A01 T02390174  RH  071%=      5-min Rain = 0
KCES 051535Z 04006KT 24/18 A3006 RMK A01 T02440179  RH  070%=      5-min Rain = 0
KCES 051540Z 05006KT 25/18 A3006 RMK A01 T02470176  RH  068%=      5-min Rain = 0
KCES 051545Z 04006KT 25/18 A3006 RMK A01 T02450177  RH  069%=      5-min Rain = 0
KCES 051550Z 05007KT 25/18 A3006 RMK A01 T02470176  RH  068%=      5-min Rain = 0
KCES 051555Z 05006KT 25/18 A3006 RMK A01 T02480176  RH  068%=      5-min Rain = 0
KCES 051600Z 03007KT 25/18 A3006 RMK A01 T02500175  RH  067%=      5-min Rain = 0
KCES 051605Z 06005KT 25/18 A3005 RMK A01 T02500175  RH  066%=      5-min Rain = 0
KCES 051610Z 06006G11KT 25/18 A3005 RMK A01 T02530178  RH  067%=      5-min Rain = 0
KCES 051615Z 06005KT 25/18 A3005 RMK A01 T02540177  RH  065%=      5-min Rain = 0
KCES 051620Z 03005KT 26/18 A3005 RMK A01 T02570178  RH  065%=      5-min Rain = 0
KCES 051625Z 02006KT 26/17 A3005 RMK A01 T02580174  RH  063%=      5-min Rain = 0
KCES 051630Z 01009KT 26/17 A3005 RMK A01 T02610171  RH  060%=      5-min Rain = 0
KCES 051635Z 02007KT 26/17 A3005 RMK A01 T02630167  RH  058%=      5-min Rain = 0
KCES 051640Z 02009KT 26/17 A3005 RMK A01 T02640166  RH  058%=      5-min Rain = 0
KCES 051645Z 01006KT 27/17 A3005 RMK A01 T02660170  RH  059%=      5-min Rain = 0
KCES 051650Z 02007KT 27/17 A3005 RMK A01 T02690171  RH  058%=      5-min Rain = 0
KCES 051655Z 02008KT 27/18 A3005 RMK A01 T02710175  RH  059%=      5-min Rain = 0
KCES 051700Z 01007G12KT 27/17 A3005 RMK A01 T02690172  RH  058%=      5-min Rain = 0
KCES 051705Z 02009KT 27/18 A3005 RMK A01 T02710175  RH  059%=      5-min Rain = 0
KCES 051710Z 03007KT 27/17 A3005 RMK A01 T02710174  RH  058%=      5-min Rain = 0
KCES 051715Z 04006KT 27/17 A3004 RMK A01 T02710173  RH  058%=      5-min Rain = 0
KCES 051720Z 02007KT 27/17 A3004 RMK A01 T02720172  RH  057%=      5-min Rain = 0
KCES 051725Z 03004KT 27/17 A3004 RMK A01 T02740166  RH  054%=      5-min Rain = 0
KCES 051730Z 00005KT 28/17 A3004 RMK A01 T02750166  RH  054%=      5-min Rain = 0
KCES 051735Z 03004G9KT 28/17 A3004 RMK A01 T02760165  RH  054%=      5-min Rain = 0
KCES 051740Z 36006KT 28/17 A3004 RMK A01 T02760165  RH  053%=      5-min Rain = 0
KCES 051745Z 34006KT 28/17 A3004 RMK A01 T02790165  RH  053%=      5-min Rain = 0
KCES 051750Z 04005KT 28/17 A3004 RMK A01 T02790166  RH  053%=      5-min Rain = 0
KCES 051755Z 05006KT 28/17 A3003 RMK A01 T02780170  RH  054%=      5-min Rain = 0
KCES 051800Z 02004G9KT 28/17 A3003 RMK A01 T02770172  RH  055%=      5-min Rain = 0
KCES 051805Z 35006KT 28/17 A3003 RMK A01 T02800171  RH  054%=      5-min Rain = 0
KCES 051810Z 02006KT 28/17 A3003 RMK A01 T02800174  RH  055%=      5-min Rain = 0
KCES 051815Z 01006G11KT 28/17 A3003 RMK A01 T02800172  RH  055%=      5-min Rain = 0
KCES 051820Z 04006KT 28/18 A3003 RMK A01 T02810175  RH  055%=      5-min Rain = 0
KCES 051825Z 04006KT 28/18 A3003 RMK A01 T02830176  RH  055%=      5-min Rain = 0
KCES 051830Z 01004KT 28/17 A3003 RMK A01 T02830168  RH  052%=      5-min Rain = 0
KCES 051835Z 04006KT 28/17 A3003 RMK A01 T02830173  RH  054%=      5-min Rain = 0
KCES 051840Z 07004KT 28/17 A3003 RMK A01 T02810167  RH  052%=      5-min Rain = 0
KCES 051845Z 14003KT 28/17 A3002 RMK A01 T02800165  RH  052%=      5-min Rain = 0
KCES 051850Z 13004KT 28/17 A3002 RMK A01 T02840169  RH  052%=      5-min Rain = 0
KCES 051855Z 03006KT 29/17 A3002 RMK A01 T02850170  RH  052%=      5-min Rain = 0
KCES 051900Z 04005KT 28/17 A3002 RMK A01 T02840171  RH  053%=      5-min Rain = 0
KCES 051905Z 03005KT 29/17 A3002 RMK A01 T02860174  RH  053%=      5-min Rain = 0
KCES 051910Z 04003KT 29/17 A3002 RMK A01 T02890170  RH  051%=      5-min Rain = 0
KCES 051915Z 02002KT 29/17 A3001 RMK A01 T02880167  RH  050%=      5-min Rain = 0
KCES 051920Z 31002KT 29/17 A3001 RMK A01 T02930168  RH  049%=      5-min Rain = 0
KCES 051925Z 29003KT 29/17 A3001 RMK A01 T02910166  RH  049%=      5-min Rain = 0
KCES 051930Z 07003KT 29/17 A30 RMK A01 T02900168  RH  050%=      5-min Rain = 0
KCES 051935Z 06003KT 29/17 A30 RMK A01 T02900168  RH  050%=      5-min Rain = 0
KCES 051940Z 04005KT 29/17 A30 RMK A01 T02910171  RH  051%=      5-min Rain = 0
KCES 051945Z 06003KT 29/17 A30 RMK A01 T02890166  RH  050%=      5-min Rain = 0
KCES 051950Z 06001KT 29/17 A30 RMK A01 T02930169  RH  050%=      5-min Rain = 0
KCES 051955Z 35002KT 30/17 A30 RMK A01 T02960166  RH  048%=      5-min Rain = 0
KCES 052000Z 34003KT 30/17 A30 RMK A01 T02980165  RH  047%=      5-min Rain = 0
KCES 052005Z 31004KT 30/16 A2999 RMK A01 T02970162  RH  046%=      5-min Rain = 0
KCES 052010Z 27003KT 30/16 A2999 RMK A01 T02950162  RH  047%=      5-min Rain = 0
KCES 052015Z 27003KT 30/16 A2999 RMK A01 T02960163  RH  047%=      5-min Rain = 0
KCES 052020Z 26001KT 30/16 A2998 RMK A01 T02960156  RH  045%=      5-min Rain = 0
KCES 052025Z 30002KT 30/16 A2998 RMK A01 T02990163  RH  046%=      5-min Rain = 0
KCES 052030Z 33003KT 30/16 A2998 RMK A01 T03010163  RH  045%=      5-min Rain = 0
KCES 052035Z 33003KT 30/16 A2998 RMK A01 T03020163  RH  045%=      5-min Rain = 0
KCES 052040Z 25002KT 30/16 A2998 RMK A01 T03030159  RH  044%=      5-min Rain = 0
KCES 052045Z 21003KT 30/16 A2998 RMK A01 T03010159  RH  044%=      5-min Rain = 0
KCES 052050Z 25003KT 30/16 A2998 RMK A01 T03010162  RH  045%=      5-min Rain = 0
KCES 052055Z 27004KT 31/16 A2997 RMK A01 T03050160  RH  044%=      5-min Rain = 0
KCES 052100Z 24003KT 31/16 A2997 RMK A01 T03070155  RH  042%=      5-min Rain = 0
KCES 052105Z 22002KT 31/15 A2997 RMK A01 T03090152  RH  041%=      5-min Rain = 0
KCES 052110Z 26001KT 31/15 A2997 RMK A01 T03100151  RH  040%=      5-min Rain = 0
KCES 052115Z 28003KT 31/16 A2997 RMK A01 T03110155  RH  041%=      5-min Rain = 0
KCES 052120Z 25003KT 31/15 A2997 RMK A01 T03110153  RH  040%=      5-min Rain = 0
KCES 052125Z 27005KT 31/15 A2997 RMK A01 T03100147  RH  039%=      5-min Rain = 0
KCES 052130Z 26004KT 31/15 A2996 RMK A01 T03080147  RH  039%=      5-min Rain = 0
KCES 052135Z 30003KT 31/15 A2996 RMK A01 T03090146  RH  039%=      5-min Rain = 0
KCES 052140Z 27002G7KT 31/15 A2996 RMK A01 T03110149  RH  039%=      5-min Rain = 0
KCES 052145Z 30004KT 31/15 A2996 RMK A01 T03130146  RH  038%=      5-min Rain = 0
KCES 052150Z 31004KT 31/15 A2996 RMK A01 T03120145  RH  038%=      5-min Rain = 0
KCES 052155Z 31002KT 31/14 A2995 RMK A01 T03130141  RH  037%=      5-min Rain = 0
KCES 052200Z 13001KT 31/14 A2995 RMK A01 T03120137  RH  036%=      5-min Rain = 0
KCES 052205Z 09003KT 31/15 A2995 RMK A01 T03110149  RH  039%=      5-min Rain = 0
KCES 052210Z 27003KT 32/15 A2995 RMK A01 T03160150  RH  038%=      5-min Rain = 0
KCES 052215Z 23004G10KT 32/14 A2995 RMK A01 T03160143  RH  037%=      5-min Rain = 0
KCES 052220Z 25004KT 32/15 A2995 RMK A01 T03160146  RH  037%=      5-min Rain = 0
KCES 052225Z 25003KT 32/14 A2995 RMK A01 T03150138  RH  036%=      5-min Rain = 0
KCES 052230Z 24004KT 31/14 A2995 RMK A01 T03140140  RH  036%=      5-min Rain = 0
KCES 052235Z 21003KT 31/14 A2994 RMK A01 T03140139  RH  036%=      5-min Rain = 0
KCES 052240Z 21001KT 32/14 A2994 RMK A01 T03160141  RH  036%=      5-min Rain = 0
KCES 052245Z 35006KT 32/15 A2994 RMK A01 T03180147  RH  037%=      5-min Rain = 0
KCES 052250Z 03005KT 31/15 A2994 RMK A01 T03140145  RH  037%=      5-min Rain = 0
KCES 052255Z 01002KT 31/14 A2994 RMK A01 T03120140  RH  037%=      5-min Rain = 0
KCES 052300Z 03002KT 32/14 A2993 RMK A01 T03150142  RH  037%=      5-min Rain = 0
KCES 052305Z 02006KT 32/14 A2993 RMK A01 T03150144  RH  037%=      5-min Rain = 0
KCES 052310Z 05003KT 32/15 A2993 RMK A01 T03150146  RH  038%=      5-min Rain = 0
KCES 052315Z 35005KT 32/14 A2993 RMK A01 T03150140  RH  036%=      5-min Rain = 0
KCES 052320Z 35005KT 32/14 A2993 RMK A01 T03150141  RH  036%=      5-min Rain = 0
KCES 052325Z 36004KT 32/14 A2993 RMK A01 T03150138  RH  036%=      5-min Rain = 0
KCES 052330Z 33003KT 32/14 A2993 RMK A01 T03160136  RH  035%=      5-min Rain = 0
KCES 052335Z 03002KT 32/13 A2993 RMK A01 T03170132  RH  034%=      5-min Rain = 0
KCES 052340Z 33004KT 32/14 A2993 RMK A01 T03170141  RH  036%=      5-min Rain = 0
KCES 052345Z 35003KT 32/14 A2992 RMK A01 T03160141  RH  036%=      5-min Rain = 0
KCES 052350Z 33001KT 32/14 A2992 RMK A01 T03170135  RH  034%=      5-min Rain = 0
KCES 052355Z 32003KT 32/14 A2992 RMK A01 T03200138  RH  035%=      5-min Rain = 0
KCES 060000Z 32003KT 32/14 A2992 RMK A01 T03180136  RH  034%=      5-min Rain = 0
KCES 060005Z 32001KT 32/13 A2992 RMK A01 T03180132  RH  034%=      5-min Rain = 0
KCES 060010Z 32001KT 32/14 A2992 RMK A01 T03200138  RH  035%=      5-min Rain = 0
KCES 060015Z 01001KT 32/14 A2992 RMK A01 T03210142  RH  035%=      5-min Rain = 0
KCES 060020Z 02005KT 32/15 A2992 RMK A01 T03190146  RH  037%=      5-min Rain = 0
KCES 060025Z 02003KT 32/14 A2992 RMK A01 T03150144  RH  037%=      5-min Rain = 0
KCES 060030Z 02002KT 31/14 A2992 RMK A01 T03140137  RH  036%=      5-min Rain = 0
KCES 060035Z 00003KT 32/14 A2993 RMK A01 T03160140  RH  036%=      5-min Rain = 0
KCES 060040Z 36002KT 32/14 A2993 RMK A01 T03150143  RH  037%=      5-min Rain = 0
KCES 060045Z 34003KT 31/15 A2993 RMK A01 T03140151  RH  039%=      5-min Rain = 0
KCES 060050Z 35004KT 31/15 A2993 RMK A01 T03120148  RH  039%=      5-min Rain = 0
KCES 060055Z 00004KT 31/15 A2993 RMK A01 T03110154  RH  041%=      5-min Rain = 0
KCES 060100Z 03006KT 31/16 A2994 RMK A01 T03100158  RH  042%=      5-min Rain = 0
KCES 060105Z 09009KT 30/18 A2994 RMK A01 T03040176  RH  049%=      5-min Rain = 0
KCES 060110Z 11011KT 29/18 A2994 RMK A01 T02940182  RH  054%=      5-min Rain = 0
KCES 060115Z 11010KT 29/18 A2994 RMK A01 T02890182  RH  056%=      5-min Rain = 0
KCES 060120Z 10011KT 29/18 A2994 RMK A01 T02870182  RH  056%=      5-min Rain = 0
KCES 060125Z 11010KT 28/18 A2995 RMK A01 T02840182  RH  057%=      5-min Rain = 0
KCES 060130Z 10010KT 28/18 A2995 RMK A01 T02800182  RH  058%=      5-min Rain = 0
KCES 060135Z 10011KT 28/18 A2995 RMK A01 T02780181  RH  058%=      5-min Rain = 0
KCES 060140Z 09010KT 28/18 A2995 RMK A01 T02770181  RH  059%=      5-min Rain = 0
KCES 060145Z 08010KT 28/18 A2995 RMK A01 T02750182  RH  060%=      5-min Rain = 0
KCES 060150Z 08008KT 27/18 A2995 RMK A01 T02730179  RH  060%=      5-min Rain = 0
KCES 060155Z 08008KT 27/18 A2995 RMK A01 T02710177  RH  059%=      5-min Rain = 0
KCES 060200Z 08006KT 27/18 A2995 RMK A01 T02690177  RH  060%=      5-min Rain = 0
KCES 060205Z 07005KT 27/18 A2995 RMK A01 T02670178  RH  061%=      5-min Rain = 0
KCES 060210Z 07006KT 27/18 A2995 RMK A01 T02660178  RH  062%=      5-min Rain = 0
KCES 060215Z 07007KT 27/18 A2995 RMK A01 T02660179  RH  062%=      5-min Rain = 0
KCES 060220Z 07007KT 27/18 A2996 RMK A01 T02650180  RH  063%=      5-min Rain = 0
KCES 060225Z 05009KT 27/18 A2996 RMK A01 T02650180  RH  063%=      5-min Rain = 0
KCES 060230Z 05011KT 26/18 A2997 RMK A01 T02630179  RH  063%=      5-min Rain = 0
KCES 060235Z 05011KT 26/18 A2997 RMK A01 T02570184  RH  068%=      5-min Rain = 0
KCES 060240Z 06010KT 25/19 A2997 RMK A01 T02510185  RH  070%=      5-min Rain = 0
KCES 060245Z 06010KT 25/19 A2998 RMK A01 T02500186  RH  071%=      5-min Rain = 0
KCES 060250Z 04010KT 25/19 A2999 RMK A01 T02470187  RH  073%=      5-min Rain = 0
KCES 060255Z 00013G19KT 24/19 A2999 RMK A01 T02430191  RH  077%=      5-min Rain = 0
KCES 060300Z 35013G18KT 23/19 A2999 RMK A01 T02330190  RH  081%=      5-min Rain = 0
KCES 060305Z 01013G18KT 22/18 A2999 RMK A01 T02240181  RH  081%=      5-min Rain = 0
KCES 060310Z 02009KT 22/18 A2999 RMK A01 T02200180  RH  083%=      5-min Rain = 0
KCES 060315Z 02008KT 22/18 A2999 RMK A01 T02200182  RH  083%=      5-min Rain = 0
KCES 060320Z 03007KT 22/18 A2999 RMK A01 T02210184  RH  084%=      5-min Rain = 0
KCES 060325Z 04007KT 22/19 A2999 RMK A01 T02220186  RH  085%=      5-min Rain = 0
KCES 060330Z 06009KT 22/19 A2999 RMK A01 T02220187  RH  085%=      5-min Rain = 0
KCES 060335Z 05009KT 22/19 A2999 RMK A01 T02210187  RH  086%=      5-min Rain = 0
KCES 060340Z 07010KT 22/19 A2999 RMK A01 T02220188  RH  085%=      5-min Rain = 0
KCES 060345Z 08010KT 23/19 A2999 RMK A01 T02260190  RH  084%=      5-min Rain = 0
KCES 060350Z 06011KT 23/19 A2999 RMK A01 T02270189  RH  084%=      5-min Rain = 0
KCES 060355Z 07008KT 23/19 A2999 RMK A01 T02250189  RH  085%=      5-min Rain = 0
KCES 060400Z 07008KT 22/19 A2999 RMK A01 T02240190  RH  086%=      5-min Rain = 0
KCES 060405Z 08008KT 23/19 A2999 RMK A01 T02250191  RH  085%=      5-min Rain = 0
KCES 060410Z 08007KT 23/19 A2999 RMK A01 T02260192  RH  086%=      5-min Rain = 0
KCES 060415Z 08007KT 23/19 A2999 RMK A01 T02260193  RH  086%=      5-min Rain = 0
KCES 060420Z 08007KT 23/19 A2999 RMK A01 T02270194  RH  086%=      5-min Rain = 0
KCES 060425Z 07006KT 23/19 A30 RMK A01 T02270194  RH  086%=      5-min Rain = 0
KCES 060430Z 07008KT 23/20 A30 RMK A01 T02280195  RH  087%=      5-min Rain = 0
KCES 060435Z 08007KT 23/20 A30 RMK A01 T02280195  RH  087%=      5-min Rain = 0
KCES 060440Z 09007KT 23/20 A30 RMK A01 T02270195  RH  087%=      5-min Rain = 0
KCES 060445Z 08007KT 23/19 A30 RMK A01 T02270194  RH  087%=      5-min Rain = 0
KCES 060450Z 07007KT 23/19 A3001 RMK A01 T02270193  RH  086%=      5-min Rain = 0
KCES 060455Z 07006KT 23/19 A3001 RMK A01 T02270192  RH  086%=      5-min Rain = 0

Page generated in 0.0091 seconds.